Time;durP1;ratioP1;P1;durP2;ratioP2;P2;SDS_P1;SDS_P2;PMS_P1;PMS_P2;Temp;Humidity;BMP_temperature;BMP_pressure;BME280_temperature;BME280_humidity;BME280_pressure;Samples;Min_cycle;Max_cycle;Signal;HPM_P1;HPM_P2
2023/03/29 00:01:15;;;;;;;5.72;2.75;;;;;;;5.94;100.00;101457.00;4954190;29;20090;-45
2023/03/29 00:03:44;;;;;;;4.00;2.33;;;;;;;6.35;100.00;101529.16;4930287;29;20034;-46
2023/03/29 00:06:13;;;;;;;4.22;2.30;;;;;;;6.40;100.00;101514.31;4954292;29;20431;-45
2023/03/29 00:08:40;;;;;;;4.45;2.80;;;;;;;6.00;100.00;101440.44;4937635;29;20032;-45
2023/03/29 00:11:06;;;;;;;5.05;3.42;;;;;;;6.06;100.00;101438.66;4954485;29;20505;-44
2023/03/29 00:13:31;;;;;;;5.13;2.80;;;;;;;6.49;100.00;101507.28;4936739;29;20089;-46
2023/03/29 00:15:57;;;;;;;5.63;3.30;;;;;;;5.33;100.00;101294.41;4953945;29;20118;-46
2023/03/29 00:18:22;;;;;;;4.70;2.60;;;;;;;6.40;100.00;101483.81;4936504;29;20039;-45
2023/03/29 00:20:58;;;;;;;3.50;2.10;;;;;;;6.38;100.00;101472.50;4918707;29;20047;-44
2023/03/29 00:23:24;;;;;;;4.25;2.85;;;;;;;6.17;100.00;101439.47;4954148;29;20035;-47
2023/03/29 00:25:50;;;;;;;4.25;2.85;;;;;;;6.45;100.00;101481.19;4937038;29;20365;-45
2023/03/29 00:28:15;;;;;;;4.18;2.90;;;;;;;6.17;100.00;101413.34;4936382;29;20123;-45
2023/03/29 00:30:40;;;;;;;3.35;2.80;;;;;;;6.59;100.00;101479.34;4954286;29;20095;-46
2023/03/29 00:33:06;;;;;;;7.35;3.55;;;;;;;6.36;100.00;101437.66;4954120;29;20122;-45
2023/03/29 00:35:32;;;;;;;4.88;3.00;;;;;;;6.37;100.00;101444.59;4953859;29;20031;-45
2023/03/29 00:37:57;;;;;;;5.13;3.10;;;;;;;6.19;100.00;101392.41;4952422;29;20074;-48
2023/03/29 00:40:23;;;;;;;6.35;3.42;;;;;;;6.59;100.00;101481.97;4953746;29;20039;-45
2023/03/29 00:42:48;;;;;;;3.30;2.88;;;;;;;6.26;100.00;101415.03;4936455;29;20122;-46
2023/03/29 00:45:19;;;;;;;7.63;3.92;;;;;;;6.60;100.00;101465.38;4953592;29;20051;-45
2023/03/29 00:47:51;;;;;;;;;;;;;;;6.59;100.00;101469.75;4954348;29;20035;-45
2023/03/29 00:50:21;;;;;;;4.97;2.78;;;;;;;6.42;100.00;101431.50;4953883;29;19914;-45
2023/03/29 00:53:15;;;;;;;6.80;3.28;;;;;;;6.56;100.00;101467.16;4937008;29;20086;-45
2023/03/29 00:55:48;;;;;;;7.60;2.75;;;;;;;6.45;100.00;101450.63;4952070;29;20217;-44
2023/03/29 00:58:17;;;;;;;5.53;3.22;;;;;;;6.60;100.00;101447.06;4953517;29;20075;-45
2023/03/29 01:00:54;;;;;;;5.35;3.60;;;;;;;6.66;100.00;101447.03;4936535;29;20063;-46
2023/03/29 01:03:23;;;;;;;5.40;3.20;;;;;;;6.68;100.00;101445.28;4936347;29;20027;-45
2023/03/29 01:05:50;;;;;;;5.55;2.95;;;;;;;6.35;100.00;101393.19;4936963;29;20028;-46
2023/03/29 01:08:31;;;;;;;4.63;3.15;;;;;;;6.69;100.00;101442.66;4936718;29;20031;-46
2023/03/29 01:11:18;;;;;;;4.88;3.40;;;;;;;6.76;100.00;101443.47;4947260;29;20053;-46
2023/03/29 01:14:17;;;;;;;6.47;3.72;;;;;;;6.79;100.00;101440.84;4920514;29;20039;-48
2023/03/29 01:16:42;;;;;;;6.55;3.30;;;;;;;6.84;100.00;101438.19;4942468;29;20411;-44
2023/03/29 01:19:10;;;;;;;6.38;3.45;;;;;;;6.84;100.00;101433.81;4953409;29;20038;-44
2023/03/29 01:21:42;;;;;;;3.58;3.00;;;;;;;6.80;100.00;101435.56;4953428;29;20043;-46
2023/03/29 01:24:26;;;;;;;6.35;3.50;;;;;;;6.84;100.00;101427.72;4936616;29;20348;-47
2023/03/29 01:27:14;;;;;;;4.88;3.08;;;;;;;6.80;100.00;101427.72;4953866;28;20106;-46
2023/03/29 01:29:45;;;;;;;3.38;2.83;;;;;;;6.83;100.00;101424.22;4910858;29;20047;-45
2023/03/29 01:32:16;;;;;;;;;;;;;;;6.86;100.00;101423.34;4939300;29;20046;-45
2023/03/29 01:34:53;;;;;;;10.83;3.40;;;;;;;6.87;100.00;101430.31;4923453;29;19955;-44
2023/03/29 01:37:25;;;;;;;6.53;3.67;;;;;;;6.76;100.00;101391.16;4956454;29;20027;-45
2023/03/29 01:39:51;;;;;;;5.15;3.25;;;;;;;6.75;100.00;101387.66;4939681;29;20050;-45
2023/03/29 01:42:19;;;;;;;5.13;3.42;;;;;;;6.92;100.00;101429.38;4922914;29;20035;-46
2023/03/29 01:44:58;;;;;;;6.15;3.40;;;;;;;6.95;100.00;101424.13;4954950;29;20502;-45
2023/03/29 01:47:52;;;;;;;7.75;3.60;;;;;;;6.70;100.00;101372.88;4956345;29;20042;-44
2023/03/29 01:50:26;;;;;;;5.53;3.78;;;;;;;7.00;100.00;101424.09;4956359;29;20105;-44
2023/03/29 01:52:58;;;;;;;5.55;3.65;;;;;;;6.56;100.00;101340.75;4956303;29;20059;-45
2023/03/29 01:55:29;;;;;;;5.78;3.88;;;;;;;6.61;100.00;101349.41;4939282;29;20041;-46
2023/03/29 01:57:55;;;;;;;6.70;3.80;;;;;;;6.61;100.00;101339.81;4939142;29;20482;-46
2023/03/29 02:00:23;;;;;;;4.82;3.47;;;;;;;7.06;100.00;101429.28;4933191;29;20040;-46
2023/03/29 02:02:50;;;;;;;6.28;3.85;;;;;;;6.59;100.00;101335.50;4954662;29;20027;-45
2023/03/29 02:05:16;;;;;;;8.00;3.72;;;;;;;6.99;100.00;101394.44;4939204;29;20042;-46
2023/03/29 02:07:43;;;;;;;5.65;3.80;;;;;;;6.80;100.00;101357.09;4938648;29;20431;-45
2023/03/29 02:10:10;;;;;;;6.10;4.13;;;;;;;6.77;100.00;101338.78;4938971;29;20031;-47
2023/03/29 02:12:36;;;;;;;8.93;3.75;;;;;;;7.12;100.00;101401.28;4956150;29;20035;-44
2023/03/29 02:15:01;;;;;;;3.95;3.45;;;;;;;6.65;100.00;101315.38;4955477;29;20036;-44
2023/03/29 02:17:27;;;;;;;6.78;3.58;;;;;;;6.64;100.00;101315.38;4954865;29;20388;-45
2023/03/29 02:19:59;;;;;;;7.03;3.92;;;;;;;7.05;100.00;101391.78;4936894;29;20075;-44
2023/03/29 02:22:35;;;;;;;6.35;4.45;;;;;;;7.04;100.00;101384.78;4936696;29;20142;-45
2023/03/29 02:25:02;;;;;;;4.95;3.10;;;;;;;6.70;100.00;101313.59;4919522;29;20039;-47
2023/03/29 02:27:28;;;;;;;8.52;4.38;;;;;;;6.98;100.00;101363.03;4919573;29;20574;-47
2023/03/29 02:29:54;;;;;;;5.75;3.65;;;;;;;6.65;100.00;101304.91;4936743;29;20118;-45
2023/03/29 02:32:24;;;;;;;4.25;3.28;;;;;;;6.63;100.00;101316.25;4919571;29;20042;-44
2023/03/29 02:34:56;;;;;;;7.40;3.60;;;;;;;6.65;100.00;101309.28;4933365;29;20031;-45
2023/03/29 02:37:24;;;;;;;8.77;4.30;;;;;;;6.56;100.00;101293.66;4955254;28;20038;-45
2023/03/29 02:39:50;;;;;;;4.72;3.80;;;;;;;7.04;100.00;101369.06;4922912;29;20043;-46
2023/03/29 02:42:19;;;;;;;4.82;3.67;;;;;;;6.65;100.00;101284.00;4955389;29;20043;-44
2023/03/29 02:44:45;;;;;;;4.85;3.50;;;;;;;6.65;100.00;101283.13;4938666;29;20114;-45
2023/03/29 02:47:15;;;;;;;4.18;3.55;;;;;;;6.66;100.00;101296.16;4937130;29;20050;-44
2023/03/29 02:49:41;;;;;;;5.72;4.53;;;;;;;6.88;100.00;101328.25;4955213;29;20093;-45
2023/03/29 02:52:11;;;;;;;5.90;3.78;;;;;;;6.61;100.00;101278.78;4938072;29;20039;-46
2023/03/29 02:54:42;;;;;;;7.40;4.10;;;;;;;6.86;100.00;101327.38;4955504;29;20031;-46
2023/03/29 02:57:07;;;;;;;;;;;;;;;7.03;100.00;101348.16;4938833;29;20630;-45
2023/03/29 02:59:33;;;;;;;7.18;4.35;;;;;;;6.65;100.00;101270.03;4954478;29;19970;-45
2023/03/29 03:01:59;;;;;;;6.72;4.20;;;;;;;6.70;100.00;101283.94;4955077;29;20051;-45
2023/03/29 03:04:25;;;;;;;5.53;4.25;;;;;;;7.09;100.00;101342.88;4953638;29;20110;-44
2023/03/29 03:06:50;;;;;;;5.95;4.22;;;;;;;7.10;100.00;101339.34;4955068;29;20050;-45
2023/03/29 03:09:16;;;;;;;7.70;3.85;;;;;;;6.73;100.00;101281.28;4937779;29;20074;-45
2023/03/29 03:11:41;;;;;;;5.38;4.20;;;;;;;6.63;100.00;101256.09;4955175;29;20125;-45
2023/03/29 03:14:07;;;;;;;8.27;4.30;;;;;;;7.09;100.00;101350.72;4937553;29;20110;-48
2023/03/29 03:16:32;;;;;;;8.75;4.78;;;;;;;6.67;100.00;101258.69;4954883;29;20061;-46
2023/03/29 03:18:58;;;;;;;9.30;4.38;;;;;;;7.04;100.00;101324.59;4955041;29;20039;-46
2023/03/29 03:21:24;;;;;;;9.18;4.72;;;;;;;7.01;100.00;101315.88;4952866;29;20455;-46
2023/03/29 03:23:50;;;;;;;6.10;5.07;;;;;;;6.60;100.00;101241.28;4922063;29;20106;-45
2023/03/29 03:26:17;;;;;;;4.85;3.97;;;;;;;6.70;100.00;101248.19;4937519;29;20467;-45
2023/03/29 03:28:44;;;;;;;6.85;4.35;;;;;;;6.71;100.00;101249.06;4954922;29;20459;-45
2023/03/29 03:31:09;;;;;;;6.50;4.35;;;;;;;7.13;100.00;101323.63;4954951;29;20042;-48
2023/03/29 03:33:35;;;;;;;6.57;4.65;;;;;;;7.17;100.00;101323.59;4937420;29;20035;-45
2023/03/29 03:36:05;;;;;;;6.22;4.47;;;;;;;6.76;100.00;101255.97;4954463;29;20581;-46
2023/03/29 03:38:33;;;;;;;5.47;3.88;;;;;;;7.20;100.00;101328.78;4953704;29;20208;-48
2023/03/29 03:41:00;;;;;;;5.93;4.50;;;;;;;7.17;100.00;101322.72;4937545;29;20483;-46
2023/03/29 03:43:27;;;;;;;7.20;4.97;;;;;;;6.83;100.00;101269.00;4954149;29;20042;-46
2023/03/29 03:45:52;;;;;;;8.25;4.75;;;;;;;6.42;100.00;101204.00;4937192;29;20565;-47
2023/03/29 03:48:18;;;;;;;9.23;4.93;;;;;;;7.16;100.00;101315.72;4954035;28;20043;-44
2023/03/29 03:50:54;;;;;;;6.50;4.65;;;;;;;6.85;100.00;101270.72;4954461;29;20467;-45
2023/03/29 03:53:20;;;;;;;5.00;4.50;;;;;;;7.19;100.00;101326.16;4931995;29;20031;-44
2023/03/29 03:55:54;;;;;;;7.35;4.85;;;;;;;7.23;100.00;101318.28;4954379;29;20035;-43
2023/03/29 03:58:20;;;;;;;8.57;5.00;;;;;;;7.19;100.00;101318.31;4953954;29;20047;-49
2023/03/29 04:00:50;;;;;;;7.13;5.00;;;;;;;7.18;100.00;101306.13;4937017;29;20046;-47
2023/03/29 04:03:15;;;;;;;9.32;4.80;;;;;;;7.21;100.00;101306.06;4952969;29;20506;-47
2023/03/29 04:05:42;;;;;;;8.65;4.47;;;;;;;7.28;100.00;101312.97;4954186;29;20039;-47
2023/03/29 04:08:07;;;;;;;7.57;5.18;;;;;;;6.85;100.00;101234.06;4953744;29;20046;-45
2023/03/29 04:10:33;;;;;;;6.68;4.88;;;;;;;6.88;100.00;101228.81;4952494;29;20035;-50
2023/03/29 04:13:03;;;;;;;7.13;4.68;;;;;;;7.32;100.00;101302.47;4953927;29;20051;-44
2023/03/29 04:15:28;;;;;;;7.95;4.88;;;;;;;7.28;100.00;101303.38;4954140;29;20035;-49
2023/03/29 04:17:58;;;;;;;7.22;4.68;;;;;;;7.13;100.00;101266.91;4937126;29;20035;-48
2023/03/29 04:20:23;;;;;;;6.10;5.45;;;;;;;7.24;100.00;101287.69;4953930;29;20031;-45
2023/03/29 04:22:50;;;;;;;6.82;4.32;;;;;;;6.89;100.00;101224.44;4953921;29;20368;-45
2023/03/29 04:25:20;;;;;;;8.15;5.30;;;;;;;7.31;100.00;101281.53;4953994;29;20495;-49
2023/03/29 04:27:46;;;;;;;9.63;5.20;;;;;;;7.31;100.00;101282.41;4936223;29;20039;-45
2023/03/29 04:30:11;;;;;;;6.70;5.60;;;;;;;6.97;100.00;101218.25;4954073;29;20042;-46
2023/03/29 04:32:37;;;;;;;7.85;5.13;;;;;;;7.34;100.00;101271.88;4936354;29;20483;-47
2023/03/29 04:35:04;;;;;;;6.45;4.47;;;;;;;7.43;100.00;101276.13;4953735;29;20074;-47
2023/03/29 04:37:31;;;;;;;5.78;5.18;;;;;;;7.45;100.00;101270.88;4936650;29;20042;-43
2023/03/29 04:39:59;;;;;;;5.78;5.13;;;;;;;7.05;100.00;101189.34;4936383;29;20039;-45
2023/03/29 04:42:25;;;;;;;8.00;5.60;;;;;;;7.11;100.00;101190.16;4935082;29;20118;-45
2023/03/29 04:44:52;;;;;;;8.90;5.85;;;;;;;7.55;100.00;101265.50;4936467;29;20035;-46
2023/03/29 04:47:18;;;;;;;8.38;5.65;;;;;;;7.63;100.00;101270.63;4953485;29;20071;-46
2023/03/29 04:49:43;;;;;;;9.35;6.15;;;;;;;7.19;100.00;101204.00;4936102;29;20036;-46
2023/03/29 04:52:09;;;;;;;8.00;5.43;;;;;;;7.60;100.00;101266.31;4920482;29;20402;-48
2023/03/29 04:54:36;;;;;;;7.63;5.28;;;;;;;7.33;100.00;101223.00;4936330;29;20032;-45
2023/03/29 04:57:02;;;;;;;7.22;4.88;;;;;;;7.28;100.00;101214.34;4961804;28;20038;-45
2023/03/29 04:59:27;;;;;;;11.82;5.97;;;;;;;7.31;100.00;101205.59;4956506;28;20063;-44
2023/03/29 05:01:53;;;;;;;7.15;5.35;;;;;;;7.64;100.00;101257.53;4956871;29;20402;-47
2023/03/29 05:04:19;;;;;;;8.63;5.47;;;;;;;7.33;100.00;101206.41;4957153;29;20042;-44
2023/03/29 05:06:44;;;;;;;8.48;5.80;;;;;;;7.35;100.00;101208.13;4939655;29;20391;-46
2023/03/29 05:09:10;;;;;;;8.43;5.72;;;;;;;7.74;100.00;101281.81;4955707;29;20087;-47
2023/03/29 05:11:35;;;;;;;6.88;5.25;;;;;;;7.46;100.00;101234.19;4957009;29;20039;-43
2023/03/29 05:14:02;;;;;;;6.75;5.28;;;;;;;7.74;100.00;101276.59;4956928;29;20032;-45
2023/03/29 05:16:30;;;;;;;9.27;5.25;;;;;;;7.79;100.00;101283.50;4957030;29;20097;-45
2023/03/29 05:18:56;;;;;;;7.10;4.72;;;;;;;7.86;100.00;101305.25;4955879;29;20046;-44
2023/03/29 05:21:22;;;;;;;5.97;4.88;;;;;;;7.87;100.00;101289.53;4956662;29;20398;-45
2023/03/29 05:23:48;;;;;;;10.52;5.93;;;;;;;7.90;100.00;101301.72;4956914;29;20043;-44
2023/03/29 05:26:14;;;;;;;6.30;5.65;;;;;;;7.51;100.00;101221.03;4939863;29;20031;-45
2023/03/29 05:28:40;;;;;;;7.70;5.63;;;;;;;7.47;100.00;101216.72;4957219;29;20038;-45
2023/03/29 05:31:06;;;;;;;8.45;5.70;;;;;;;7.86;100.00;101285.16;4956950;29;20399;-44
2023/03/29 05:33:32;;;;;;;7.85;5.65;;;;;;;7.84;100.00;101263.34;4956757;29;20027;-46
2023/03/29 05:36:25;;;;;;;9.02;6.28;;;;;;;7.84;100.00;101273.84;4957021;29;20035;-47
2023/03/29 05:38:50;;;;;;;9.27;6.15;;;;;;;7.90;100.00;101276.38;4953954;29;20118;-46
2023/03/29 05:41:16;;;;;;;6.63;5.47;;;;;;;7.67;100.00;101235.66;4939556;29;20122;-47
2023/03/29 05:43:42;;;;;;;10.52;6.63;;;;;;;7.99;100.00;101295.47;4939562;29;20042;-44
2023/03/29 05:46:08;;;;;;;8.57;5.70;;;;;;;7.96;100.00;101282.41;4956754;29;20039;-46
2023/03/29 05:48:33;;;;;;;7.63;6.05;;;;;;;7.84;100.00;101265.09;4955463;29;20035;-44
2023/03/29 05:50:59;;;;;;;9.70;6.35;;;;;;;7.58;100.00;101222.69;4954417;29;20105;-45
2023/03/29 05:53:26;;;;;;;8.88;6.50;;;;;;;8.01;100.00;101298.91;4954359;29;20114;-44
2023/03/29 05:55:51;;;;;;;10.15;5.97;;;;;;;8.01;100.00;101281.44;4956671;29;20035;-44
2023/03/29 05:58:17;;;;;;;11.02;5.70;;;;;;;7.58;100.00;101215.69;4938959;29;20134;-44
2023/03/29 06:00:43;;;;;;;8.80;6.07;;;;;;;7.98;100.00;101278.00;4956179;29;20057;-44
2023/03/29 06:03:19;;;;;;;10.20;6.63;;;;;;;8.00;100.00;101284.94;4955273;29;20028;-45
2023/03/29 06:05:48;;;;;;;10.25;5.85;;;;;;;8.02;100.00;101280.56;4935816;29;20520;-44
2023/03/29 06:08:14;;;;;;;8.55;6.22;;;;;;;7.73;100.00;101228.59;4934743;29;20035;-45
2023/03/29 06:10:40;;;;;;;10.57;6.68;;;;;;;8.08;100.00;101290.97;4955937;29;20106;-46
2023/03/29 06:13:05;;;;;;;8.43;5.82;;;;;;;8.14;100.00;101283.00;4955336;28;20047;-46
2023/03/29 06:15:31;;;;;;;11.88;6.10;;;;;;;8.12;100.00;101279.53;4956270;29;20035;-45
2023/03/29 06:17:57;;;;;;;7.22;5.95;;;;;;;8.23;100.00;101285.47;4938580;29;20050;-46
2023/03/29 06:20:22;;;;;;;12.20;6.45;;;;;;;8.16;100.00;101278.59;4955916;29;20063;-45
2023/03/29 06:22:48;;;;;;;7.50;5.95;;;;;;;8.22;100.00;101280.25;4956017;29;20458;-47
2023/03/29 06:25:14;;;;;;;9.73;6.05;;;;;;;7.84;100.00;101220.56;4955900;29;20089;-46
2023/03/29 06:27:39;;;;;;;9.48;6.30;;;;;;;7.91;100.00;101223.03;4955462;29;20483;-45
2023/03/29 06:30:05;;;;;;;7.75;6.50;;;;;;;8.19;100.00;101260.19;4955974;29;20054;-47
2023/03/29 06:32:32;;;;;;;7.82;5.80;;;;;;;8.32;100.00;101268.75;4955737;29;20042;-46
2023/03/29 06:34:58;;;;;;;11.15;7.57;;;;;;;8.43;100.00;101283.41;4937587;29;20035;-46
2023/03/29 06:37:24;;;;;;;13.10;7.18;;;;;;;8.49;100.00;101285.09;4954758;29;20039;-47
2023/03/29 06:39:51;;;;;;;9.43;6.60;;;;;;;8.56;100.00;101286.72;4955172;29;20670;-46
2023/03/29 06:42:20;;;;;;;11.18;6.63;;;;;;;8.26;100.00;101227.72;4953170;29;20130;-46
2023/03/29 06:44:45;;;;;;;9.00;7.30;;;;;;;8.59;100.00;101281.41;4938265;29;20526;-44
2023/03/29 06:47:12;;;;;;;10.18;6.80;;;;;;;8.57;100.00;101266.59;4953792;29;20122;-46
2023/03/29 06:49:38;;;;;;;7.70;6.70;;;;;;;8.62;100.00;101285.72;4954359;29;20058;-46
2023/03/29 06:52:04;;;;;;;8.80;7.47;;;;;;;8.71;100.00;101294.31;4922295;29;20455;-45
2023/03/29 06:54:29;;;;;;;15.18;7.57;;;;;;;8.80;100.00;101309.03;4954333;29;20038;-44
2023/03/29 06:56:56;;;;;;;11.55;7.63;;;;;;;8.38;100.00;101232.78;4955245;29;20035;-46
2023/03/29 06:59:21;;;;;;;12.30;7.00;;;;;;;8.83;100.00;101312.47;4955454;29;20081;-45
2023/03/29 07:01:47;;;;;;;13.70;8.43;;;;;;;8.43;100.00;101248.47;4953604;29;20043;-47
2023/03/29 07:04:12;;;;;;;12.73;8.13;;;;;;;8.75;100.00;101303.88;4954957;29;20065;-45
2023/03/29 07:06:39;;;;;;;12.88;7.90;;;;;;;8.83;100.00;101299.34;4953921;29;20428;-48
2023/03/29 07:09:05;;;;;;;11.57;8.15;;;;;;;8.72;100.00;101266.31;4954387;29;20031;-47
2023/03/29 07:11:35;;;;;;;18.23;8.35;;;;;;;8.69;100.00;101240.13;4952980;29;20542;-46
2023/03/29 07:14:01;;;;;;;11.27;7.82;;;;;;;9.10;100.00;101313.75;4952275;29;20045;-47
2023/03/29 07:16:27;;;;;;;12.45;8.70;;;;;;;9.14;100.00;101315.41;4953403;29;20101;-47
2023/03/29 07:18:53;;;;;;;14.18;9.05;;;;;;;9.23;100.00;101309.97;4952964;29;20487;-45
2023/03/29 07:21:19;;;;;;;13.80;8.90;;;;;;;9.19;100.00;101310.06;4953146;29;20493;-48
2023/03/29 07:23:45;;;;;;;11.88;8.13;;;;;;;9.24;100.00;101306.47;4936887;29;20168;-45
2023/03/29 07:26:10;;;;;;;14.85;8.45;;;;;;;9.32;100.00;101306.31;4953736;29;20084;-46
2023/03/29 07:28:38;;;;;;;17.48;9.45;;;;;;;9.34;100.00;101310.63;4953360;29;20034;-48
2023/03/29 07:31:05;;;;;;;16.05;8.82;;;;;;;9.35;100.00;101307.09;4952844;29;20075;-47
2023/03/29 07:33:33;;;;;;;14.10;8.50;;;;;;;9.09;100.00;101264.72;4953334;29;20565;-46
2023/03/29 07:35:58;;;;;;;12.27;8.30;;;;;;;9.54;100.00;101313.72;4952960;29;20463;-46
2023/03/29 07:38:24;;;;;;;11.90;8.88;;;;;;;9.56;100.00;101311.94;4948058;29;20035;-48
2023/03/29 07:40:49;;;;;;;17.00;9.00;;;;;;;9.43;100.00;101292.06;4950144;29;20082;-46
2023/03/29 07:43:17;;;;;;;13.60;9.55;;;;;;;9.17;100.00;101248.81;4951728;29;20046;-49
2023/03/29 07:45:43;;;;;;;13.40;9.88;;;;;;;9.63;100.00;101308.28;4951649;29;20506;-47
2023/03/29 07:48:09;;;;;;;17.05;10.15;;;;;;;9.77;100.00;101301.88;4952408;29;20067;-47
2023/03/29 07:50:34;;;;;;;17.48;9.57;;;;;;;9.86;100.00;101305.16;4953108;29;20501;-48
2023/03/29 07:53:00;;;;;;;16.38;10.90;;;;;;;9.76;100.00;101276.47;4953328;29;20032;-46
2023/03/29 07:55:26;;;;;;;13.13;9.00;;;;;;;10.02;100.00;101319.69;4933941;29;20039;-47
2023/03/29 07:57:51;;;;;;;16.15;10.15;;;;;;;9.70;100.00;101263.44;4951729;29;20054;-47
2023/03/29 08:00:18;;;;;;;14.45;9.90;;;;;;;9.70;100.00;101240.66;4951794;29;20471;-43
2023/03/29 08:02:46;;;;;;;13.35;9.63;;;;;;;10.16;100.00;101312.38;4951529;29;20046;-46
2023/03/29 08:05:13;;;;;;;16.98;10.43;;;;;;;10.13;100.00;101304.56;4934878;29;20118;-46
2023/03/29 08:07:40;;;;;;;15.25;10.57;;;;;;;10.30;100.00;101312.06;4952887;29;20042;-45
2023/03/29 08:10:09;;;;;;;20.10;10.93;;;;;;;10.31;100.00;101302.38;4952215;29;20044;-47
2023/03/29 08:12:35;;;;;;;20.02;12.45;;;;;;;10.49;100.00;101310.72;4952827;29;20506;-44
2023/03/29 08:15:00;;;;;;;19.80;12.43;;;;;;;10.29;100.00;101265.59;4950602;29;20043;-49
2023/03/29 08:17:26;;;;;;;20.13;11.52;;;;;;;10.53;100.00;101280.81;4934904;29;20127;-46
2023/03/29 08:19:51;;;;;;;21.35;13.18;;;;;;;10.74;100.00;101295.16;4951292;29;20471;-45
2023/03/29 08:22:16;;;;;;;24.75;14.35;;;;;;;10.81;100.00;101302.00;4935499;29;20031;-46
2023/03/29 08:24:42;;;;;;;21.45;12.35;;;;;;;10.90;100.00;101307.03;4949220;29;20048;-46
2023/03/29 08:27:08;;;;;;;22.38;13.35;;;;;;;10.84;100.00;101291.41;4934986;29;20131;-47
2023/03/29 08:29:34;;;;;;;18.58;13.18;;;;;;;10.81;100.00;101273.03;4932685;29;20454;-46
2023/03/29 08:31:59;;;;;;;19.23;13.20;;;;;;;10.89;100.00;101252.63;4932445;29;20119;-48
2023/03/29 08:34:24;;;;;;;22.13;14.02;;;;;;;11.17;100.00;101279.97;4931974;29;20040;-45
2023/03/29 08:36:51;;;;;;;21.10;13.82;;;;;;;11.40;100.00;101305.66;4933257;29;20028;-46
2023/03/29 08:39:17;;;;;;;23.95;13.00;;;;;;;11.52;100.00;101294.78;4932830;29;20027;-46
2023/03/29 08:41:56;;;;;;;21.75;14.07;;;;;;;11.49;100.00;101239.50;4930954;29;20051;-46
2023/03/29 08:44:47;;;;;;;20.35;13.95;;;;;;;11.96;100.00;101296.13;4951596;29;20041;-47
2023/03/29 08:47:25;;;;;;;17.52;13.07;;;;;;;11.99;100.00;101287.25;4928717;29;20031;-45
2023/03/29 08:49:53;;;;;;;18.92;13.32;;;;;;;12.05;100.00;101309.03;4930369;29;20475;-46
2023/03/29 08:52:35;;;;;;;19.17;13.18;;;;;;;11.98;100.00;101317.16;4932872;29;20125;-45
2023/03/29 08:55:05;;;;;;;18.15;13.43;;;;;;;11.87;100.00;101306.94;4928971;29;20455;-47
2023/03/29 08:57:32;;;;;;;24.08;14.30;;;;;;;11.78;100.00;101309.84;4915758;29;20050;-47
2023/03/29 09:00:00;;;;;;;18.17;13.57;;;;;;;11.78;100.00;101291.38;4943303;29;20048;-47
2023/03/29 09:02:29;;;;;;;23.13;15.05;;;;;;;11.68;100.00;101296.03;4934263;29;20039;-45
2023/03/29 09:05:05;;;;;;;23.83;15.40;;;;;;;11.40;100.00;101263.50;4930189;29;20040;-45
2023/03/29 09:07:30;;;;;;;22.50;14.82;;;;;;;11.68;100.00;101303.94;4934651;29;20035;-45
2023/03/29 09:09:56;;;;;;;22.25;14.68;;;;;;;11.62;100.00;101306.75;4949297;29;20519;-46
2023/03/29 09:12:54;;;;;;;21.02;14.13;;;;;;;11.90;100.00;101300.72;4948778;29;20518;-47
2023/03/29 09:15:27;;;;;;;21.90;14.45;;;;;;;11.76;100.00;101241.31;4908148;29;20043;-49
2023/03/29 09:18:20;;;;;;;18.67;12.65;;;;;;;12.47;100.00;101300.63;4931285;29;20140;-46
2023/03/29 09:20:56;;;;;;;16.15;12.80;;;;;;;12.85;100.00;101310.78;4951454;29;20189;-45
2023/03/29 09:23:24;;;;;;;16.63;11.68;;;;;;;12.96;100.00;101320.06;4922787;29;20448;-46
2023/03/29 09:25:58;;;;;;;15.75;11.60;;;;;;;12.84;100.00;101317.84;4951358;29;20039;-45
2023/03/29 09:28:39;;;;;;;15.95;11.80;;;;;;;12.54;100.00;101316.25;4950746;29;20082;-46
2023/03/29 09:31:09;;;;;;;;;;;;;;;12.40;100.00;101319.31;4934298;29;20027;-47
2023/03/29 09:33:44;;;;;;;16.60;10.73;;;;;;;12.25;100.00;101317.19;4949899;29;19973;-45
2023/03/29 09:36:23;;;;;;;17.92;11.18;;;;;;;11.94;100.00;101276.81;4950852;29;20039;-48
2023/03/29 09:38:53;;;;;;;15.73;11.27;;;;;;;11.79;100.00;101246.50;4949679;29;20042;-46
2023/03/29 09:41:41;;;;;;;14.98;12.07;;;;;;;12.20;100.00;101323.53;4931708;29;20122;-48
2023/03/29 09:44:30;;;;;;;17.33;12.30;;;;;;;12.09;100.00;101320.31;4930332;29;20051;-48
2023/03/29 09:47:05;;;;;;;16.65;12.05;;;;;;;11.92;100.00;101314.72;4927854;29;20057;-46
2023/03/29 09:49:35;;;;;;;14.82;11.27;;;;;;;11.89;100.00;101298.97;4954289;29;20406;-46
2023/03/29 09:52:04;;;;;;;14.35;11.30;;;;;;;12.14;100.00;101329.81;4952044;29;20039;-46
2023/03/29 09:54:30;;;;;;;13.60;10.95;;;;;;;12.25;100.00;101301.34;4935228;29;20497;-46
2023/03/29 09:56:56;;;;;;;13.90;11.43;;;;;;;12.08;100.00;101272.00;4936135;29;20035;-46
2023/03/29 09:59:21;;;;;;;17.35;11.00;;;;;;;12.12;100.00;101256.91;4946345;29;20462;-45
2023/03/29 10:01:47;;;;;;;17.67;11.43;;;;;;;12.38;100.00;101315.00;4953593;29;20054;-48
2023/03/29 10:04:13;;;;;;;12.38;10.52;;;;;;;12.26;100.00;101307.47;4954265;29;20122;-47
2023/03/29 10:06:48;;;;;;;14.13;10.77;;;;;;;12.24;100.00;101293.47;4953693;29;20398;-47
2023/03/29 10:09:21;;;;;;;14.77;12.30;;;;;;;12.17;100.00;101286.66;4953429;29;20030;-46
2023/03/29 10:11:51;;;;;;;16.55;11.68;;;;;;;12.18;100.00;101252.28;4937569;29;20095;-46
2023/03/29 10:14:37;;;;;;;14.02;12.23;;;;;;;12.66;100.00;101313.19;4953928;29;20039;-45
2023/03/29 10:17:18;;;;;;;14.02;11.07;;;;;;;12.37;100.00;101263.13;4954202;29;20043;-46
2023/03/29 10:20:04;;;;;;;11.18;9.98;;;;;;;12.25;100.00;101240.63;4938090;29;20141;-45
2023/03/29 10:22:36;;;;;;;12.27;10.38;;;;;;;12.29;100.00;101254.56;4936585;29;20039;-48
2023/03/29 10:25:03;;;;;;;13.48;11.10;;;;;;;12.42;100.00;101279.66;4954063;29;20395;-47
2023/03/29 10:27:33;;;;;;;13.43;10.80;;;;;;;12.43;100.00;101259.41;4953317;29;20475;-46
2023/03/29 10:29:59;;;;;;;13.55;11.38;;;;;;;12.20;100.00;101237.25;4953886;29;20050;-45
2023/03/29 10:32:32;;;;;;;14.40;12.13;;;;;;;12.10;100.00;101224.44;4953355;29;20038;-49
2023/03/29 10:35:08;;;;;;;13.60;11.80;;;;;;;12.37;100.00;101287.72;4952223;29;20031;-46
2023/03/29 10:37:33;;;;;;;13.38;12.02;;;;;;;12.11;100.00;101255.19;4934926;29;20341;-46
2023/03/29 10:39:58;;;;;;;12.68;11.23;;;;;;;12.22;100.00;101275.06;4953711;29;20122;-46
2023/03/29 10:42:25;;;;;;;12.77;11.55;;;;;;;12.30;100.00;101261.59;4946236;28;20078;-46
2023/03/29 10:44:56;;;;;;;14.52;12.10;;;;;;;11.92;100.00;101211.81;4955318;28;20035;-45
2023/03/29 10:47:21;;;;;;;;;;;;;;;12.28;100.00;101266.94;4952743;28;20046;-47
2023/03/29 10:49:50;;;;;;;15.35;13.68;;;;;;;12.33;100.00;101264.13;4936340;29;19926;-45
2023/03/29 10:52:16;;;;;;;14.80;13.27;;;;;;;11.97;100.00;101204.63;4953787;29;20489;-46
2023/03/29 10:54:42;;;;;;;17.05;15.27;;;;;;;12.24;100.00;101248.59;4953196;29;20027;-49
2023/03/29 10:57:11;;;;;;;19.85;16.75;;;;;;;11.96;100.00;101195.88;4953516;29;20031;-46
2023/03/29 10:59:57;;;;;;;20.80;18.08;;;;;;;12.33;100.00;101237.72;4935962;29;20114;-47
2023/03/29 11:02:49;;;;;;;27.02;21.42;;;;;;;12.44;100.00;101254.06;4936873;29;20034;-47
2023/03/29 11:05:37;;;;;;;23.65;21.23;;;;;;;12.51;100.00;101255.59;4918911;29;20446;-46
2023/03/29 11:08:17;;;;;;;23.90;21.40;;;;;;;12.53;100.00;101247.63;4936205;29;20032;-46
2023/03/29 11:10:54;;;;;;;24.48;21.98;;;;;;;12.50;100.00;101268.84;4936291;29;20059;-49
2023/03/29 11:13:56;;;;;;;28.45;23.10;;;;;;;12.55;100.00;101264.28;4954569;29;20416;-48
2023/03/29 11:16:40;;;;;;;25.83;22.38;;;;;;;12.62;100.00;101253.47;4952665;29;20079;-51
2023/03/29 11:19:06;;;;;;;26.63;22.80;;;;;;;12.86;100.00;101284.31;4947629;29;20043;-48
2023/03/29 11:21:50;;;;;;;22.52;20.10;;;;;;;12.95;100.00;101276.09;4954814;29;20038;-47
2023/03/29 11:24:27;;;;;;;23.13;20.83;;;;;;;12.88;100.00;101244.63;4954573;29;20031;-49
2023/03/29 11:27:04;;;;;;;19.75;17.70;;;;;;;13.10;100.00;101297.63;4953371;29;20046;-45